Hauptseite
METAR-TAF:

METAR-TAF

Flughäfen :

Dire Dawa, Äthiopien

Breite: 09-36N, Länge: 041-52E, Höhe: 1146 m

METAR: fehlend

Zeit: 17:07 (14:07 UTC)

Prognose

Neuester Wetterbericht von vor 4 Stunden und 37 Minuten, um 09:30 UTC
Gültige Prognose vom 06 um 12 UTC bis 07 um 18 UTC
Wind 6 kt aus Nordwest
Sichtweite 10 km oder mehr
Aufgelockert bewölkt in der Höhe von 3000 ft
Aufgelockert bewölkt in der Höhe von 9000 ft
Übergehend zu
vom 06 um 12 UTC bis 06 um 17 UTC
Wind 5 kt aus West/Nordwest
Sichtweite: 8000 m
Durchbrochene Bewölkung in der Höhe von 2000 ft
Regenschauer

TAF: HADR 060930Z 0612/0718 32006KT 9999 SCT030 SCT090 BECMG 0612/0617 30005KT 8000 SHRA BKN020

Wetterbeobachtungen und Prognosen von mehr als 4000 Flughäfen (METAR und TAF Bericht).

Die verfügbaren Stationen werden durch gelbe und rote Markierungen auf der Karte dargestellt.

Führen Sie die Maus auf sie, um den Namen der Station zu sehen.

Darauf klicken, um die Beobachtung von Wetterbeobachtungen und Prognosen zu sehen.

Um die Karte zu ändern : klicken Sie auf den grünen Tasten mit einem schwarzen Kreuz Zum Vergrößern, auf den grünen Button mit einem Gedankenstrich zu verkleinern, oder auf die grünen Pfeile für benachbarte Karten.


METAR-TAF: